createdAt,value
2024-01-05T00:01:03.731Z,2.63
2024-01-05T00:04:05.224Z,2.25
2024-01-05T00:07:10.726Z,2.10
2024-01-05T00:10:12.203Z,2.42
2024-01-05T00:13:13.244Z,2.65
2024-01-05T00:16:24.592Z,2.22
2024-01-05T00:19:26.282Z,3.15
2024-01-05T00:22:27.610Z,4.45
2024-01-05T00:25:28.867Z,3.50
2024-01-05T00:28:29.767Z,3.60
2024-01-05T00:31:30.795Z,4.20
2024-01-05T00:34:32.466Z,3.60
2024-01-05T00:37:33.665Z,4.32
2024-01-05T00:40:35.070Z,4.15
2024-01-05T00:43:36.009Z,4.75
2024-01-05T00:46:40.717Z,5.88
2024-01-05T00:49:42.249Z,6.97
2024-01-05T00:52:43.552Z,4.45
2024-01-05T00:55:44.280Z,4.80
2024-01-05T00:58:45.729Z,4.30
2024-01-05T01:01:47.126Z,4.82
2024-01-05T01:04:48.064Z,5.05
2024-01-05T01:07:49.693Z,4.60
2024-01-05T01:10:50.640Z,5.65
2024-01-05T01:13:51.984Z,5.32
2024-01-05T01:16:53.353Z,4.53
2024-01-05T01:19:54.513Z,4.82
2024-01-05T01:22:55.500Z,4.57
2024-01-05T01:25:56.820Z,4.30
2024-01-05T01:29:01.038Z,4.05
2024-01-05T01:32:02.588Z,4.45
2024-01-05T01:35:04.765Z,3.90
2024-01-05T01:38:05.691Z,4.10
2024-01-05T01:41:06.733Z,3.92
2024-01-05T01:44:07.918Z,4.10
2024-01-05T01:47:09.210Z,4.00
2024-01-05T01:50:11.955Z,3.53
2024-01-05T01:53:16.352Z,3.38
2024-01-05T01:56:18.234Z,3.15
2024-01-05T01:59:19.376Z,3.35
2024-01-05T02:02:20.868Z,3.22
2024-01-05T02:05:21.994Z,3.53
2024-01-05T02:08:24.051Z,3.97
2024-01-05T02:11:25.320Z,3.92
2024-01-05T02:14:26.478Z,4.70
2024-01-05T02:17:35.461Z,3.75
2024-01-05T02:20:37.099Z,4.53
2024-01-05T02:23:38.547Z,3.67
2024-01-05T02:26:41.072Z,3.63
2024-01-05T02:29:42.175Z,4.35
2024-01-05T02:32:43.434Z,4.07
2024-01-05T02:35:44.750Z,4.18
2024-01-05T02:38:46.039Z,4.32
2024-01-05T02:41:47.453Z,4.00
2024-01-05T02:44:48.608Z,4.95
2024-01-05T02:47:52.780Z,4.93
2024-01-05T02:50:54.325Z,4.38
2024-01-05T02:53:55.273Z,5.07
2024-01-05T02:56:56.820Z,4.97
2024-01-05T02:59:58.035Z,4.07
2024-01-05T03:02:59.415Z,5.28
2024-01-05T03:06:00.852Z,4.07
2024-01-05T03:09:02.508Z,3.42
2024-01-05T03:12:03.953Z,3.40
2024-01-05T03:15:06.085Z,3.03
2024-01-05T03:18:07.085Z,2.35
2024-01-05T03:21:08.926Z,2.15
2024-01-05T03:24:10.443Z,2.00
2024-01-05T03:27:14.655Z,1.67
2024-01-05T03:30:16.370Z,1.67
2024-01-05T03:33:20.513Z,2.03
2024-01-05T03:36:21.791Z,1.70
2024-01-05T03:39:23.334Z,1.67
2024-01-05T03:42:25.474Z,2.03
2024-01-05T03:45:26.626Z,2.17
2024-01-05T03:48:28.308Z,4.70
2024-01-05T03:51:29.519Z,3.35
2024-01-05T03:54:31.136Z,2.95
2024-01-05T03:57:32.433Z,2.67
2024-01-05T04:00:34.720Z,3.10
2024-01-05T04:03:36.250Z,3.20
2024-01-05T04:06:37.449Z,3.75
2024-01-05T04:09:39.777Z,3.72
2024-01-05T04:12:40.878Z,3.63
2024-01-05T04:15:42.546Z,3.80
2024-01-05T04:18:44.005Z,3.67
2024-01-05T04:21:45.488Z,4.20
2024-01-05T04:24:46.705Z,3.90
2024-01-05T04:27:47.958Z,4.50
2024-01-05T04:30:49.245Z,3.80
2024-01-05T04:33:50.838Z,3.55
2024-01-05T04:36:52.168Z,3.85
2024-01-05T04:39:53.244Z,3.58
2024-01-05T04:42:55.246Z,3.50
2024-01-05T04:45:56.448Z,4.18
2024-01-05T04:48:57.434Z,4.93
2024-01-05T04:51:59.477Z,4.40
2024-01-05T04:55:00.541Z,4.07
2024-01-05T04:58:02.211Z,4.03
2024-01-05T05:01:03.786Z,4.07
2024-01-05T05:04:05.211Z,3.83
2024-01-05T05:07:06.650Z,4.10
2024-01-05T05:10:09.293Z,4.10
2024-01-05T05:13:11.335Z,5.15
2024-01-05T05:16:12.583Z,4.68
2024-01-05T05:19:14.251Z,4.47
2024-01-05T05:22:15.894Z,5.03
2024-01-05T05:25:17.339Z,4.15
2024-01-05T05:28:18.613Z,3.90
2024-01-05T05:31:19.770Z,4.03
2024-01-05T05:34:20.696Z,4.18
2024-01-05T05:37:22.048Z,3.90
2024-01-05T05:40:22.980Z,3.60
2024-01-05T05:43:24.233Z,3.67
2024-01-05T05:46:25.244Z,3.50
2024-01-05T05:49:26.825Z,3.53
2024-01-05T05:52:30.643Z,3.70
2024-01-05T05:55:32.122Z,3.03
2024-01-05T05:58:32.997Z,3.17
2024-01-05T06:01:34.382Z,4.00
2024-01-05T06:04:36.352Z,3.05
2024-01-05T06:07:37.522Z,3.15
2024-01-05T06:10:39.357Z,2.90
2024-01-05T06:13:40.566Z,3.55
2024-01-05T06:16:41.910Z,3.85
2024-01-05T06:19:44.438Z,4.75
2024-01-05T06:22:45.848Z,4.80
2024-01-05T06:25:47.316Z,6.38
2024-01-05T06:28:48.295Z,3.83
2024-01-05T06:31:49.115Z,4.88
2024-01-05T06:34:50.147Z,3.13
2024-01-05T06:37:51.323Z,2.90
2024-01-05T06:40:52.556Z,3.83
2024-01-05T06:43:53.400Z,3.50
2024-01-05T06:46:54.428Z,3.45
2024-01-05T06:49:56.489Z,3.50
2024-01-05T06:52:57.255Z,3.60
2024-01-05T06:55:58.708Z,3.95
2024-01-05T06:59:05.598Z,3.72
2024-01-05T07:02:07.112Z,4.22
2024-01-05T07:05:08.831Z,3.40
2024-01-05T07:08:09.784Z,4.25
2024-01-05T07:11:20.276Z,3.90
2024-01-05T07:14:21.525Z,4.03
2024-01-05T07:17:23.013Z,3.70
2024-01-05T07:20:24.370Z,4.20
2024-01-05T07:23:25.586Z,3.85
2024-01-05T07:26:27.068Z,3.85
2024-01-05T07:29:28.544Z,4.25
2024-01-05T07:32:30.042Z,6.05
2024-01-05T07:35:32.435Z,5.43
2024-01-05T07:38:37.412Z,7.13
2024-01-05T07:41:39.730Z,6.85
2024-01-05T07:44:41.144Z,6.75
2024-01-05T07:47:42.579Z,6.63
2024-01-05T07:50:43.934Z,6.45
2024-01-05T07:53:45.134Z,6.18
2024-01-05T07:56:46.361Z,5.60
2024-01-05T07:59:47.598Z,6.18
2024-01-05T08:02:50.788Z,6.05
2024-01-05T08:05:52.012Z,8.52
2024-01-05T08:08:53.498Z,6.70
2024-01-05T08:11:54.549Z,7.53
2024-01-05T08:14:55.730Z,7.88
2024-01-05T08:17:57.983Z,7.80
2024-01-05T08:20:59.394Z,10.35
2024-01-05T08:24:00.552Z,7.85
2024-01-05T08:27:01.992Z,7.40
2024-01-05T08:30:03.477Z,7.10
2024-01-05T08:33:04.852Z,6.60
2024-01-05T08:36:06.207Z,9.35
2024-01-05T08:39:07.845Z,8.85
2024-01-05T08:42:09.702Z,7.20
2024-01-05T08:45:11.364Z,7.57
2024-01-05T08:48:13.271Z,8.35
2024-01-05T08:51:14.836Z,10.32
2024-01-05T08:54:16.197Z,9.32
2024-01-05T08:57:17.324Z,9.95
2024-01-05T09:00:20.331Z,8.82
2024-01-05T09:03:21.737Z,8.60
2024-01-05T09:06:23.334Z,8.40
2024-01-05T09:09:24.553Z,9.38
2024-01-05T09:12:26.515Z,9.10
2024-01-05T09:15:28.340Z,8.70
2024-01-05T09:18:35.745Z,9.82
2024-01-05T09:24:38.854Z,10.05
2024-01-05T09:27:40.340Z,9.75
2024-01-05T09:30:41.615Z,9.43
2024-01-05T09:33:43.293Z,9.88
2024-01-05T09:36:44.347Z,9.40
2024-01-05T09:39:46.619Z,8.80
2024-01-05T09:42:52.666Z,7.88
2024-01-05T09:45:56.875Z,7.55
2024-01-05T09:48:59.948Z,7.82
2024-01-05T09:52:01.811Z,7.22
2024-01-05T09:55:02.890Z,7.38
2024-01-05T09:58:06.462Z,7.70
2024-01-05T10:01:22.553Z,8.65
2024-01-05T10:04:24.592Z,9.40
2024-01-05T10:07:25.668Z,9.43
2024-01-05T10:11:00.581Z,11.40
2024-01-05T10:14:09.542Z,10.32
2024-01-05T10:17:17.522Z,9.98
2024-01-05T10:20:19.143Z,10.82
2024-01-05T10:23:20.766Z,9.27
2024-01-05T10:26:21.783Z,8.85
2024-01-05T10:29:22.616Z,8.98
2024-01-05T10:32:26.896Z,9.07
2024-01-05T10:35:30.624Z,9.02
2024-01-05T10:38:33.500Z,9.13
2024-01-05T10:41:34.810Z,8.93
2024-01-05T10:44:36.810Z,8.65
2024-01-05T10:47:39.201Z,8.27
2024-01-05T10:50:43.107Z,8.57
2024-01-05T10:53:45.505Z,8.07
2024-01-05T10:56:47.706Z,8.45
2024-01-05T10:59:57.135Z,9.15
2024-01-05T11:03:10.636Z,9.13
2024-01-05T11:06:12.589Z,7.85
2024-01-05T11:09:46.427Z,7.95
2024-01-05T11:13:25.344Z,7.15
2024-01-05T11:16:40.921Z,8.40
2024-01-05T11:20:17.033Z,8.30
2024-01-05T11:23:21.054Z,8.57
2024-01-05T11:26:43.632Z,10.95
2024-01-05T11:29:52.853Z,10.77
2024-01-05T11:32:54.056Z,10.40
2024-01-05T11:35:55.459Z,10.80
2024-01-05T11:38:56.356Z,9.75
2024-01-05T11:41:57.349Z,9.50
2024-01-05T11:45:11.463Z,10.45
2024-01-05T11:48:35.963Z,10.52
2024-01-05T11:51:37.403Z,8.18
2024-01-05T11:54:38.928Z,10.25
2024-01-05T11:57:40.197Z,8.70
2024-01-05T12:00:46.230Z,10.13
2024-01-05T12:03:47.215Z,10.50
2024-01-05T12:06:53.780Z,10.13
2024-01-05T12:09:54.708Z,10.00
2024-01-05T12:12:56.742Z,10.38
2024-01-05T12:16:02.290Z,10.50
2024-01-05T12:19:04.295Z,9.82
2024-01-05T12:22:05.822Z,10.10
2024-01-05T12:25:07.493Z,9.30
2024-01-05T12:28:16.465Z,7.15
2024-01-05T12:31:19.321Z,7.35
2024-01-05T12:34:20.936Z,7.03
2024-01-05T12:37:22.437Z,6.75
2024-01-05T12:40:28.210Z,7.43
2024-01-05T12:43:29.780Z,6.93
2024-01-05T12:46:30.596Z,6.80
2024-01-05T12:49:37.097Z,6.43
2024-01-05T12:52:39.636Z,7.35
2024-01-05T12:55:41.202Z,6.43
2024-01-05T12:58:44.851Z,6.32
2024-01-05T13:01:45.830Z,6.20
2024-01-05T13:04:47.225Z,6.75
2024-01-05T13:07:48.664Z,6.13
2024-01-05T13:10:49.435Z,6.10
2024-01-05T13:13:54.262Z,5.70
2024-01-05T13:16:55.334Z,5.00
2024-01-05T13:19:56.356Z,4.47
2024-01-05T13:23:01.426Z,8.18
2024-01-05T13:26:03.311Z,9.52
2024-01-05T13:29:04.196Z,9.23
2024-01-05T13:32:06.002Z,8.40
2024-01-05T13:35:07.880Z,7.70
2024-01-05T13:38:08.805Z,8.40
2024-01-05T13:41:10.055Z,7.45
2024-01-05T13:44:11.400Z,7.47
2024-01-05T13:47:12.670Z,8.80
2024-01-05T13:50:13.958Z,8.73
2024-01-05T13:53:15.607Z,8.20
2024-01-05T13:56:16.609Z,8.32
2024-01-05T13:59:17.956Z,9.38
2024-01-05T14:02:20.807Z,8.88
2024-01-05T14:05:22.292Z,8.77
2024-01-05T14:08:24.365Z,9.02
2024-01-05T14:11:25.681Z,8.48
2024-01-05T14:14:27.058Z,9.20
2024-01-05T14:17:28.271Z,8.35
2024-01-05T14:20:29.747Z,9.40
2024-01-05T14:23:30.812Z,10.38
2024-01-05T14:26:31.732Z,10.73
2024-01-05T14:29:33.037Z,11.82
2024-01-05T14:32:34.405Z,14.35
2024-01-05T14:35:35.521Z,14.85
2024-01-05T14:38:38.373Z,14.52
2024-01-05T14:41:39.200Z,13.05
2024-01-05T14:44:40.952Z,12.25
2024-01-05T14:47:43.009Z,12.48
2024-01-05T14:50:44.462Z,11.57
2024-01-05T14:53:45.504Z,11.55
2024-01-05T14:56:46.898Z,11.25
2024-01-05T14:59:47.785Z,10.80
2024-01-05T15:02:49.203Z,12.55
2024-01-05T15:05:50.082Z,11.75
2024-01-05T15:08:51.361Z,11.40
2024-01-05T15:11:52.664Z,12.73
2024-01-05T15:14:53.825Z,12.82
2024-01-05T15:17:54.983Z,12.63
2024-01-05T15:20:55.986Z,13.10
2024-01-05T15:23:56.879Z,11.88
2024-01-05T15:26:58.193Z,12.90
2024-01-05T15:29:59.205Z,12.77
2024-01-05T15:33:00.763Z,13.82
2024-01-05T15:36:02.126Z,13.30
2024-01-05T15:39:03.469Z,12.18
2024-01-05T15:42:05.131Z,12.45
2024-01-05T15:45:06.662Z,12.35
2024-01-05T15:48:08.268Z,11.57
2024-01-05T15:51:15.718Z,12.13
2024-01-05T15:57:20.137Z,11.82
2024-01-05T16:00:21.855Z,11.25
2024-01-05T16:03:24.189Z,12.10
2024-01-05T16:06:25.733Z,11.82
2024-01-05T16:09:26.961Z,11.35
2024-01-05T16:12:28.368Z,10.77
2024-01-05T16:15:29.671Z,10.88
2024-01-05T16:18:31.205Z,10.73
2024-01-05T16:21:34.399Z,11.68
2024-01-05T16:24:36.881Z,12.02
2024-01-05T16:27:38.198Z,12.23
2024-01-05T16:30:39.763Z,12.50
2024-01-05T16:33:41.218Z,11.43
2024-01-05T16:36:42.466Z,10.88
2024-01-05T16:39:46.062Z,12.40
2024-01-05T16:42:47.640Z,12.73
2024-01-05T16:45:48.962Z,12.88
2024-01-05T16:48:54.808Z,13.68
2024-01-05T16:51:56.971Z,12.75
2024-01-05T16:54:58.051Z,12.15
2024-01-05T16:57:59.071Z,13.23
2024-01-05T17:01:00.469Z,13.10
2024-01-05T17:04:08.242Z,13.20
2024-01-05T17:10:10.897Z,12.75
2024-01-05T17:13:11.792Z,12.80
2024-01-05T17:16:12.658Z,14.00
2024-01-05T17:19:14.098Z,14.77
2024-01-05T17:22:15.338Z,16.40
2024-01-05T17:25:16.692Z,14.13
2024-01-05T17:28:17.836Z,12.63
2024-01-05T17:31:18.845Z,11.63
2024-01-05T17:34:24.360Z,12.85
2024-01-05T17:37:25.183Z,14.38
2024-01-05T17:40:26.550Z,13.27
2024-01-05T17:43:27.936Z,12.48
2024-01-05T17:46:29.341Z,13.85
2024-01-05T17:49:30.229Z,14.30
2024-01-05T17:52:31.563Z,13.55
2024-01-05T17:55:32.976Z,14.43
2024-01-05T17:58:34.014Z,13.73
2024-01-05T18:01:47.406Z,13.23
2024-01-05T18:04:48.704Z,14.40
2024-01-05T18:07:54.456Z,13.93
2024-01-05T18:10:55.357Z,14.63
2024-01-05T18:13:56.881Z,14.20
2024-01-05T18:16:58.018Z,14.43
2024-01-05T18:19:59.276Z,13.95
2024-01-05T18:23:00.769Z,14.02
2024-01-05T18:26:02.009Z,14.02
2024-01-05T18:29:17.042Z,15.15
2024-01-05T18:32:26.257Z,14.55
2024-01-05T18:35:29.762Z,15.75
2024-01-05T18:38:31.225Z,16.77
2024-01-05T18:41:35.153Z,17.65
2024-01-05T18:44:36.200Z,18.48
2024-01-05T18:47:37.442Z,19.73
2024-01-05T18:50:41.701Z,17.08
2024-01-05T18:53:43.430Z,17.10
2024-01-05T18:56:44.755Z,16.55
2024-01-05T18:59:46.666Z,17.42
2024-01-05T19:02:47.839Z,16.95
2024-01-05T19:05:49.413Z,17.25
2024-01-05T19:08:50.732Z,16.88
2024-01-05T19:11:52.958Z,17.77
2024-01-05T19:14:54.422Z,20.15
2024-01-05T19:17:55.639Z,18.20
2024-01-05T19:20:56.862Z,21.17
2024-01-05T19:23:58.213Z,18.20
2024-01-05T19:27:00.040Z,18.42
2024-01-05T19:30:01.366Z,19.23
2024-01-05T19:33:02.990Z,17.05
2024-01-05T19:36:14.133Z,18.17
2024-01-05T19:39:15.636Z,18.02
2024-01-05T19:42:19.805Z,19.90
2024-01-05T19:45:20.793Z,20.08
2024-01-05T19:48:22.466Z,19.77
2024-01-05T19:51:23.800Z,20.13
2024-01-05T19:54:24.700Z,21.45
2024-01-05T19:57:26.058Z,20.02
2024-01-05T20:00:27.128Z,21.95
2024-01-05T20:03:28.596Z,21.45
2024-01-05T20:06:29.889Z,22.30
2024-01-05T20:09:31.086Z,22.30
2024-01-05T20:12:32.398Z,21.17
2024-01-05T20:15:35.035Z,22.08
2024-01-05T20:18:36.300Z,21.60
2024-01-05T20:21:37.727Z,21.80
2024-01-05T20:24:38.732Z,20.83
2024-01-05T20:27:43.830Z,22.20
2024-01-05T20:30:46.846Z,22.00
2024-01-05T20:33:49.922Z,22.48
2024-01-05T20:36:54.245Z,22.40
2024-01-05T20:39:55.437Z,21.67
2024-01-05T20:42:59.677Z,23.38
2024-01-05T20:46:01.336Z,23.55
2024-01-05T20:49:03.039Z,24.48
2024-01-05T20:52:04.770Z,24.05
2024-01-05T20:55:06.483Z,24.42
2024-01-05T20:58:08.150Z,26.92
2024-01-05T21:01:10.764Z,24.85
2024-01-05T21:04:15.643Z,25.38
2024-01-05T21:07:18.253Z,25.00
2024-01-05T21:10:19.222Z,23.80
2024-01-05T21:13:20.720Z,25.30
2024-01-05T21:16:21.964Z,26.38
2024-01-05T21:19:23.438Z,26.23
2024-01-05T21:22:25.871Z,27.23
2024-01-05T21:25:30.787Z,28.52
2024-01-05T21:28:32.350Z,26.52
2024-01-05T21:31:33.363Z,28.02
2024-01-05T21:34:34.792Z,28.13
2024-01-05T21:37:37.070Z,28.45
2024-01-05T21:40:38.262Z,31.25
2024-01-05T21:43:39.359Z,29.40
2024-01-05T21:46:40.723Z,32.97
2024-01-05T21:49:41.635Z,32.95
2024-01-05T21:52:43.011Z,33.40
2024-01-05T21:55:44.500Z,33.53
2024-01-05T21:58:45.891Z,31.00
2024-01-05T22:01:48.502Z,32.90
2024-01-05T22:04:49.863Z,30.42
2024-01-05T22:07:51.180Z,32.08
2024-01-05T22:10:52.770Z,32.22
2024-01-05T22:13:53.844Z,34.85
2024-01-05T22:16:56.092Z,33.08
2024-01-05T22:19:57.098Z,31.50
2024-01-05T22:22:58.449Z,33.53
2024-01-05T22:25:59.353Z,33.10
2024-01-05T22:29:05.013Z,35.13
2024-01-05T22:32:06.994Z,34.58
2024-01-05T22:35:09.224Z,35.45
2024-01-05T22:38:10.655Z,34.20
2024-01-05T22:41:13.520Z,35.33
2024-01-05T22:44:14.796Z,33.63
2024-01-05T22:47:16.254Z,35.50
2024-01-05T22:50:17.702Z,38.15
2024-01-05T22:53:19.183Z,38.55
2024-01-05T22:56:20.682Z,32.65
2024-01-05T22:59:22.077Z,32.60
2024-01-05T23:02:23.453Z,31.35
2024-01-05T23:05:24.840Z,30.40
2024-01-05T23:08:26.975Z,32.10
2024-01-05T23:11:28.580Z,33.50
2024-01-05T23:14:29.728Z,32.03
2024-01-05T23:17:31.393Z,33.30
2024-01-05T23:20:32.785Z,32.42
2024-01-05T23:23:36.054Z,32.75
2024-01-05T23:26:37.074Z,32.88
2024-01-05T23:29:38.445Z,33.35
2024-01-05T23:32:39.553Z,33.35
2024-01-05T23:35:40.927Z,29.80
2024-01-05T23:38:42.006Z,30.25
2024-01-05T23:41:42.979Z,32.88
2024-01-05T23:44:44.063Z,35.45
2024-01-05T23:47:45.075Z,34.80
2024-01-05T23:50:46.590Z,33.70
2024-01-05T23:53:47.913Z,33.53
2024-01-05T23:56:48.858Z,37.00
2024-01-05T23:59:50.598Z,36.85
